Tiempo atmosférico en la estación meteorológica de Valencia Aeropuerto, València/Valencia (69 m.)



Fecha
DESCASC
Temp. máxima en grados centígrados (hora)
DESCASC
Temp. mínima en grados centígrados (hora)
DESCASC
Temp. media en grados centígrados
DESCASC
Racha de viento máxima en m/sg (hora)
DESCASC
Velocidad máxima media en intervalos de 10 minutos(hora)
DESCASC
Precipitaciones diarias en mm
DESCASC
Precipitaciones de 00:00 a 06:00 en mm
DESCASC
Precipitaciones de 06:00 a 12:00 en mm
DESCASC
Precipitaciones de 12:00 a 18:00 en mm
DESCASC
Precipitaciones de 18:00 a 24:00 en mm
DESCASC
22-11-2020 18.1 (14:40) 4.7 (08:20) 11.4 5 (12:20) 3.61 (17:10) 0 0 0 0 0
21-11-2020 18.3 (14:30) 6 (07:50) 12.1 5.83 (16:20) 3.61 (09:20) 0 0 0 0 0
20-11-2020 19.3 (14:30) 8.4 (08:10) 13.8 7.22 (14:50) 5 (16:00) 0 0 0 0 0
19-11-2020 23.5 (15:20) 11.3 (00:00) 17.4 6.11 (07:40) 4.72 (07:40) 0 0 0 0 0
18-11-2020 21 (15:40) 13.5 (00:00) 17.3 5 (16:20) 3.61 (16:40) 0 0 0 0 0
17-11-2020 21.6 (13:50) 10.9 (00:00) 16.3 6.11 (15:30) 4.17 (15:30) 0 0 0 0 0
16-11-2020 24.1 (11:50) 14.7 (00:00) 19.4 8.33 (13:20) 6.11 (14:00) 0 0 0 0 0
15-11-2020 24.1 (15:50) 12.8 (00:00) 18.5 15 (13:40) 10.56 (13:20) 0 0 0 0 0
14-11-2020 -- (--) -- (--) -- -- (--) -- (--) -- -- -- 0 0.1
13-11-2020 19.6 (15:50) 10.7 (00:00) 15.2 6.11 (02:20) 4.72 (02:10) 0 0 0 0 0
12-11-2020 19.6 (16:00) 8.7 (00:00) 14.2 5 (17:30) 3.89 (17:10) 0 0 0 0 0
11-11-2020 20.7 (13:40) 9.5 (00:00) 15.1 6.11 (15:30) 4.72 (16:00) 0 0 0 0 0
10-11-2020 21.2 (13:50) 9.9 (00:00) 15.6 6.11 (16:20) 4.44 (16:50) -- 0 -- -- 0
09-11-2020 21.9 (13:00) 9.1 (00:00) 15.5 6.67 (19:30) 4.72 (15:50) 0 0 0 0 0
08-11-2020 22.3 (14:10) 9.8 (00:00) 16 6.11 (04:10) 5 (03:30) 0 0 0 0 0
07-11-2020 19.9 (15:50) 13.1 (00:00) 16.5 13.89 (06:20) 9.44 (06:20) 8 0.9 6.6 0.5 0
06-11-2020 20.2 (15:00) 15.4 (00:00) 17.8 12.78 (17:40) 8.33 (15:10) 0 0 0 0 0
05-11-2020 16.9 (21:10) 12.5 (00:00) 14.7 18.89 (13:10) 12.22 (14:40) 91.4 36.3 1.6 53.2 0.3
04-11-2020 18 (00:10) 12.5 (00:00) 15.3 17.5 (23:50) 9.72 (23:59) 5.7 0 1.2 0.7 3.8
03-11-2020 20.7 (14:00) 10.2 (00:00) 15.5 7.78 (17:10) 5.56 (17:10) 0 0 0 0 0
02-11-2020 24 (13:20) 8.6 (00:00) 16.3 7.22 (15:50) 4.72 (16:10) 0 0 0 0 0
01-11-2020 26 (14:20) 9.4 (00:00) 17.7 6.67 (14:40) 5 (15:00) 0 0 0 0 0
31-10-2020 23.6 (13:40) 8.6 (00:00) 16.1 8.33 (17:00) 4.44 (14:10) 0 0 0 0 0
30-10-2020 24 (12:50) 8.5 (00:00) 16.3 6.67 (14:10) 4.72 (15:40) 0 0 0 0 0
29-10-2020 23.7 (14:00) 9.5 (00:00) 16.6 6.67 (14:10) 4.44 (16:40) 0 0 0 0 0
28-10-2020 25.4 (14:50) 10.6 (00:00) 18 7.22 (16:10) 5.56 (16:20) 0 0 0 0 0
27-10-2020 22.6 (16:00) 8.6 (00:00) 15.6 11.39 (14:10) 8.33 (16:50) 0 0 0 0 0

Gráficas

Temp. máximas Temp. mínimas Temp. medias Precipitaciones Rachas de viento máximas Velocidades máximas media en intervalos de 10 minutos

Datos horarios

Fecha y hora oficial Temperatura (ºC) Velocidad del viento (km/h) Dirección del viento Racha (km/h) Dirección de racha Precipitación (mm) Presión (hPa) Tendencia (hPa) Humedad (%)
2020-11-25 23:00:00 10.7 7 Noroeste 18 Noroeste 0 1008.8 0.2 86
2020-11-25 22:00:00 11 14 Noroeste 22 Noroeste 0 1008.8 0.5 85
2020-11-25 21:00:00 10.8 7 Noroeste 13 Noroeste 0 1008.7 0.6 90
2020-11-25 20:00:00 10.6 7 Noroeste 9 Noroeste 0 1008.6 0.8 89
2020-11-25 19:00:00 13.2 5 Norte 11 Este 0 1008.3 0.5 80
2020-11-25 18:00:00 14.1 8 Este 15 Este 0 1008.1 0.1 75
2020-11-25 17:00:00 15.8 13 Este 21 Este 0 1007.8 -0.8 63
2020-11-25 16:00:00 17.2 13 Sudeste 18 Sudeste 0 1007.8 -1.7 49
2020-11-25 15:00:00 17.9 3 Nordeste 9 Nordeste 0 1008 -2.5 41
2020-11-25 14:00:00 17.2 4 Norte 9 Nordeste 0 1008.6 -- 42
2020-11-25 13:00:00 16.2 0 Calma -- -- -- 1009.5 -- 44
2020-11-25 12:00:00 14.8 9 Noroeste 13 Noroeste 0 1010.5 -- 49
2020-11-25 11:00:00 11.8 8 Noroeste 13 Noroeste 0 1011 -- 59
2020-11-25 10:00:00 9.1 9 Noroeste 13 Noroeste 0 1011.2 -- 69
2020-11-25 09:00:00 5.9 6 Oeste 13 Oeste 0 1011.2 -- 89
2020-11-25 08:00:00 4.5 7 Oeste 11 Oeste 0 1010.8 -- 88
2020-11-25 07:00:00 4.5 0 Calma 9 Oeste 0 1010.7 -- 90
2020-11-25 06:00:00 4.5 8 Noroeste 11 Noroeste 0 1010.6 -- 92
2020-11-25 05:00:00 4.8 5 Oeste 9 Noroeste 0 1010.7 -- 92
2020-11-25 04:00:00 4.9 5 Oeste 9 Noroeste 0 1011 -- 93
2020-11-25 03:00:00 5.5 6 Oeste 9 Noroeste 0 1011.4 -- 94
2020-11-25 02:00:00 6.2 6 Oeste 11 Oeste 0 1011.7 -- 93
2020-11-25 01:00:00 6.6 3 Noroeste 11 Noroeste 0 1012.4 -- 93
2020-11-25 00:00:00 7.5 6 Noroeste 13 Oeste 0 1012.6 -- 93
2020-11-24 23:00:00 8 8 Oeste 13 Noroeste 0 1012.8 -- 92
2020-11-24 22:00:00 9 8 Oeste 15 Noroeste 0 1013 -- 91
2020-11-24 21:00:00 10.4 11 Noroeste 13 Noroeste 0 1013.1 -- 89
2020-11-24 20:00:00 10.6 6 Noroeste -- -- 0 1013 -- 88
2020-11-24 19:00:00 12.7 6 Norte 9 Norte 0 1013 -- 81
2020-11-24 18:00:00 14 8 Sudeste 15 Sudeste 0 1012.9 -- 78
2020-11-24 17:00:00 15.4 10 Sudeste 13 Sudeste 0 1012.9 -- 67
2020-11-24 16:00:00 16.6 9 Sudeste 15 Sudeste 0 1013 -- 52
2020-11-24 15:00:00 16.9 9 Sudeste 15 Este 0 1013.6 -- 55
2020-11-24 14:00:00 16.9 6 Sudeste 11 Este 0 1014.5 -- 53
2020-11-24 13:00:00 16.1 4 Este 9 Este 0 1015.5 -- 52
2020-11-24 12:00:00 14.8 0 Calma 13 Noroeste 0 1016.8 -- 54
2020-11-24 11:00:00 12.1 7 Noroeste 13 Noroeste 0 1017.6 -- 62
2020-11-24 10:00:00 9.5 0 Calma 8 Noroeste 0 1017.7 -- 78
2020-11-24 09:00:00 6.5 7 Oeste 11 Oeste 0 1017.8 -- 91
2020-11-24 08:00:00 5.6 6 Oeste 9 Oeste 0 1017.4 -- 91
2020-11-24 07:00:00 5.2 9 Oeste 11 Oeste 0 1017.4 -- 93
2020-11-24 06:00:00 5.5 9 Oeste 11 Oeste 0 1017.5 -- 93
2020-11-24 05:00:00 6 6 Oeste 11 Oeste 0 1017.7 -- 93
2020-11-24 04:00:00 6.4 8 Oeste 13 Noroeste 0 1017.9 -- 91
2020-11-24 03:00:00 7.8 9 Noroeste 13 Oeste 0 1018.3 -- 89
2020-11-24 02:00:00 7.4 8 Noroeste 13 Oeste 0 1018.8 -- 91
2020-11-24 01:00:00 7.9 9 Noroeste 13 Noroeste 0 1019.3 -- 91
2020-11-24 00:00:00 8.4 6 Noroeste 15 Noroeste 0 1019.5 -- 90
2020-11-23 23:00:00 8 8 Noroeste 11 Noroeste 0 1020.1 -- 92
2020-11-23 22:00:00 8.8 8 Noroeste 11 Noroeste 0 1020.2 -- 90
2020-11-23 21:00:00 9.8 10 Noroeste 15 Noroeste 0 1020.2 -- 89
2020-11-23 20:00:00 10 8 Noroeste -- -- 0 1020.1 -- 87
2020-11-23 19:00:00 12.9 4 Sur -- -- 0 1020 -- 76
2020-11-23 18:00:00 13.8 8 Sudeste 18 Sudeste 0 1019.5 -- 71
2020-11-23 17:00:00 15.6 15 Sudeste 21 Sudeste 0 1019.2 -- 63
2020-11-23 16:00:00 17 10 Sudeste 17 Sudeste 0 1019.1 -- 56
2020-11-23 15:00:00 17.5 10 Sudeste 18 Sur 0 1019.2 -- 53
2020-11-23 14:00:00 17.3 7 Sudoeste 22 Oeste 0 1020 -- 52
2020-11-23 13:00:00 16.7 9 Sudoeste 17 Sudoeste 0 1020.8 -- 55
2020-11-23 12:00:00 14.9 6 Oeste 18 Noroeste 0 1021.9 -- 60
2020-11-23 11:00:00 13.2 13 Noroeste 28 Noroeste 0 1022.2 -- 64
2020-11-23 10:00:00 11.3 18 Noroeste 26 Noroeste 0 1021.8 -- 68
2020-11-23 09:00:00 9.8 18 Noroeste 26 Noroeste 0 1021.8 -- 72
2020-11-23 08:00:00 8.7 17 Noroeste 26 Noroeste 0 1021.3 -- 76
2020-11-23 07:00:00 9 15 Noroeste 21 Noroeste 0 1021.2 -- 79
2020-11-23 06:00:00 8.7 11 Noroeste 17 Noroeste 0 1021 -- 81
2020-11-23 05:00:00 8.5 8 Oeste 13 Noroeste 0 1020.8 -- 84
2020-11-23 04:00:00 8.6 11 Noroeste 17 Noroeste 0 1020.7 -- 81
2020-11-23 03:00:00 9.3 10 Noroeste 17 Noroeste 0 1020.8 -- 81
2020-11-23 02:00:00 8.8 8 Noroeste 15 Noroeste 0 1020.9 -- 85
2020-11-23 01:00:00 8.6 5 Oeste 17 Noroeste 0 1021.1 -- 86
2020-11-23 00:00:00 8.1 5 Oeste 11 Oeste 0 1021.2 -- 89
2020-11-22 23:00:00 8.2 7 Oeste 11 Noroeste 0 1021.1 -- 89
2020-11-22 22:00:00 8.6 4 Oeste 8 Oeste 0 1021.1 -- 88
2020-11-22 21:00:00 9.3 5 Noroeste 11 Noroeste 0 1021 -- 87
2020-11-22 20:00:00 9.7 9 Noroeste 11 Noroeste 0 1020.8 -- 86
2020-11-22 19:00:00 12.5 0 Calma 13 Sudeste 0 1020.3 -- 74
2020-11-22 18:00:00 13.9 11 Sudeste 18 Sudeste 0 1019.7 -- 67
2020-11-22 17:00:00 16.2 10 Sudeste 15 Sudeste 0 1019 -- 57
2020-11-22 16:00:00 17.2 10 Sudeste 18 Sudeste 0 1018.8 -- 53
2020-11-22 15:00:00 18 3 Este 11 Sudeste 0 1019 -- 45
2020-11-22 14:00:00 17.2 8 Sudoeste 18 Oeste 0 1019.6 -- 45
2020-11-22 13:00:00 16.1 12 Sudoeste 18 Oeste 0 1020.4 -- 51
2020-11-22 12:00:00 14.4 9 Oeste 15 Oeste 0 1021.6 -- 58
2020-11-22 11:00:00 12.4 9 Oeste 15 Oeste 0 1022.2 -- 66
2020-11-22 10:00:00 10 9 Oeste 13 Oeste 0 1022.3 -- 77
2020-11-22 09:00:00 7.1 9 Oeste 17 Oeste 0 1022.3 -- 87
2020-11-22 08:00:00 5 9 Oeste 15 Oeste 0 1022 -- 91
2020-11-22 07:00:00 5.3 11 Oeste 13 Oeste 0 1021.8 -- 93
2020-11-22 06:00:00 5.6 10 Oeste 13 Oeste 0 1021.5 -- 90
2020-11-22 05:00:00 6.5 6 Noroeste 11 Oeste 0 1021.1 -- 91
2020-11-22 04:00:00 6.9 8 Oeste 13 Oeste 0 1021 -- 90
2020-11-22 03:00:00 7.1 8 Oeste 11 Oeste 0 1021.3 -- 90
2020-11-22 02:00:00 7 6 Oeste 9 Oeste 0 1021.7 -- 90
2020-11-22 01:00:00 7.2 4 Oeste 11 Noroeste 0 1022.2 -- 91
2020-11-22 00:00:00 7.9 8 Oeste 9 Oeste 0 1022.8 -- 89
2020-11-21 23:00:00 8.7 4 Oeste 11 Noroeste 0 1022.9 -- 88
2020-11-21 22:00:00 9 8 Noroeste 13 Noroeste 0 1022.8 -- 86
2020-11-21 21:00:00 9.6 5 Noroeste 11 Noroeste 0 1022.5 -- 86
2020-11-21 20:00:00 10.6 6 Noroeste 9 Oeste 0 1022.1 -- 81
2020-11-21 19:00:00 13.8 6 Este 13 Este 0 1022 -- 67
2020-11-21 18:00:00 14.9 10 Este 15 Este 0 1021.5 -- 60
2020-11-21 17:00:00 16.5 11 Este 21 Este 0 1021 -- 53
2020-11-21 16:00:00 17.4 12 Este 18 Este 0 1021 -- 50
2020-11-21 15:00:00 18 6 Este 13 Sur 0 1021 -- 45
2020-11-21 14:00:00 17.8 8 Sudeste 13 Sur 0 1021.3 -- 46
2020-11-21 13:00:00 16.7 2 Nordeste 11 Nordeste 0 1021.7 -- 48
2020-11-21 12:00:00 15.7 0 Calma 11 Norte 0 1022.3 -- 42
2020-11-21 11:00:00 13 7 Noroeste 13 Noroeste 0 1022.4 -- 53
2020-11-21 10:00:00 10.6 10 Noroeste 18 Noroeste 0 1022.3 -- 59
2020-11-21 09:00:00 8.2 9 Noroeste 15 Noroeste 0 1021.7 -- 68
2020-11-21 08:00:00 6.2 8 Noroeste 13 Oeste 0 1020.9 -- 81
2020-11-21 07:00:00 6.4 6 Oeste 13 Oeste 0 1020.6 -- 83
2020-11-21 06:00:00 6.9 9 Noroeste 13 Noroeste 0 1020.4 -- 88
2020-11-21 05:00:00 7.7 6 Noroeste 11 Noroeste 0 1020.3 -- 84
2020-11-21 04:00:00 8.2 3 Noroeste 8 Noroeste 0 1020.3 -- 88
2020-11-21 03:00:00 7.6 5 Oeste 9 Oeste 0 1020.1 -- 90
2020-11-21 02:00:00 8.1 7 Oeste 13 Noroeste 0 1020.2 -- 90
2020-11-21 01:00:00 8.8 7 Oeste 11 Noroeste 0 1020.3 -- 87
2020-11-21 00:00:00 9.2 10 Noroeste 15 Noroeste 0 1020.1 -- 88
2020-11-20 23:00:00 9.5 8 Oeste 11 Oeste 0 1020.2 -- 85
2020-11-20 22:00:00 10.2 6 Oeste 13 Noroeste 0 1020.1 -- 84
2020-11-20 21:00:00 10.6 10 Noroeste 13 Noroeste 0 1019.8 -- 84
2020-11-20 20:00:00 12 4 Oeste 9 Oeste 0 1019.5 -- 78
2020-11-20 19:00:00 14.2 6 Sudeste 15 Sudeste 0 1019.2 -- 65
2020-11-20 18:00:00 15.6 11 Sudeste 17 Sur 0 1018.8 -- 61
2020-11-20 17:00:00 17.3 13 Sur 24 Sudeste 0 1018.6 -- 53
2020-11-20 16:00:00 18.6 18 Sudeste 26 Sudeste 0 1018.7 -- 48
2020-11-20 15:00:00 19.1 14 Sur 26 Sur 0 1018.9 -- 45
2020-11-20 14:00:00 18.9 13 Sur 22 Sur 0 1019.6 -- 48
2020-11-20 13:00:00 18.6 11 Sur 18 Sur 0 1020.8 -- 47
2020-11-20 12:00:00 17.9 6 Sudeste 13 Este 0 1021.7 -- 48
2020-11-20 11:00:00 16.1 0 Calma 9 Oeste 0 1021.9 -- 54
2020-11-20 10:00:00 13.1 5 Noroeste 13 Noroeste 0 1021.5 -- 66
2020-11-20 09:00:00 9.9 5 Noroeste 17 Noroeste 0 1021.1 -- 85
2020-11-20 08:00:00 8.7 10 Oeste 13 Oeste 0 1020.5 -- 86
2020-11-20 07:00:00 9.4 8 Noroeste 13 Oeste 0 1020.3 -- 86
2020-11-20 06:00:00 9.9 6 Oeste 11 Sudoeste 0 1020.3 -- 88
2020-11-20 05:00:00 11 3 Sudoeste 9 Oeste 0 1020.7 -- 81
2020-11-20 04:00:00 11.9 8 Oeste 11 Oeste 0 1020.7 -- 79
2020-11-20 03:00:00 11.4 6 Noroeste 11 Noroeste 0 1020.7 -- 90
2020-11-20 02:00:00 11.9 6 Oeste 9 Oeste 0 1021.2 -- 90
2020-11-20 01:00:00 12.3 6 Oeste 11 Noroeste 0 1021.5 -- 90
2020-11-20 00:00:00 13.1 6 Oeste 9 Oeste 0 1021.6 -- 89
2020-11-19 23:00:00 13.4 6 Oeste 9 Noroeste 0 1022.3 -- 90
2020-11-19 22:00:00 14.6 0 Calma 11 Oeste 0 1022.3 -- 86
2020-11-19 21:00:00 15.6 6 Noroeste 13 Norte 0 1022.3 -- 83
2020-11-19 20:00:00 15.5 3 Noroeste 8 Noroeste 0 1022.1 -- 82
2020-11-19 19:00:00 17.7 0 Calma 9 Sudeste 0 1021.6 -- 71
2020-11-19 18:00:00 19.4 3 Sudeste 13 Sur 0 1021.2 -- 61
2020-11-19 17:00:00 21.6 10 Sudeste 13 Sudeste 0 1020.8 -- 56
2020-11-19 16:00:00 23.1 5 Sur 11 Sur 0 1021 -- 49
2020-11-19 15:00:00 22.3 0 Calma 9 Nordeste 0 1021.5 -- 52
2020-11-19 14:00:00 21.2 7 Norte 13 Sudoeste 0 1022.1 -- 54
2020-11-19 13:00:00 21 4 Sudoeste 13 Oeste 0 1022.7 -- 57
2020-11-19 12:00:00 19.5 6 Oeste 17 Noroeste 0 1023.7 -- 56
2020-11-19 11:00:00 17.2 8 Noroeste 17 Noroeste 0 -- -- --
2020-11-19 10:00:00 15.5 14 Noroeste 17 Noroeste 0 -- -- --
2020-11-19 09:00:00 14 13 Noroeste 21 Noroeste 0 -- -- --
2020-11-19 08:00:00 13.6 14 Oeste 22 Noroeste 0 -- -- --
2020-11-19 07:00:00 14.4 12 Oeste 18 Noroeste 0 -- -- --
2020-11-19 06:00:00 14.9 11 Noroeste 17 Noroeste 0 -- -- --
2020-11-19 05:00:00 15.2 10 Noroeste 17 Oeste 0 -- -- --
2020-11-19 04:00:00 15.2 11 Noroeste 13 Oeste 0 -- -- --
2020-11-19 03:00:00 15.3 8 Noroeste 13 Noroeste 0 -- -- --
2020-11-19 02:00:00 15.3 11 Noroeste 17 Noroeste 0 -- -- --
2020-11-19 01:00:00 15.3 13 Noroeste 17 Noroeste 0 -- -- --
2020-11-19 00:00:00 15.1 13 Noroeste 17 Noroeste 0 -- -- --
2020-11-18 23:00:00 15 10 Noroeste 13 Noroeste 0 -- -- --
2020-11-18 22:00:00 14.7 9 Noroeste 11 Noroeste 0 -- -- --
2020-11-18 21:00:00 14.5 9 Noroeste -- -- 0 -- -- --
2020-11-18 20:00:00 15.8 5 Sudeste 9 Sudeste 0 -- -- --
2020-11-18 19:00:00 16.3 8 Sudeste 13 Sudeste 0 -- -- --
2020-11-18 18:00:00 17.4 8 Este 15 Este 0 -- -- --
2020-11-18 17:00:00 19.2 12 Este 18 Este 0 -- -- --
2020-11-18 16:00:00 20.8 4 Sudeste 11 Sudeste 0 -- -- --
2020-11-18 15:00:00 20.3 2 Este 9 Norte 0 -- -- --
2020-11-18 14:00:00 19.7 4 Noroeste 13 Oeste 0 -- -- --
2020-11-18 13:00:00 18.5 5 Norte 15 Noroeste 0 -- -- --
2020-11-18 12:00:00 17.3 9 Noroeste 17 Noroeste 0 -- -- --
2020-11-18 11:00:00 16.4 10 Noroeste 13 Noroeste 0 -- -- --
2020-11-18 10:00:00 15.2 6 Oeste 15 Noroeste 0 -- -- --
2020-11-18 09:00:00 15 10 Noroeste 15 Oeste 0 -- -- --
2020-11-18 08:00:00 15.2 4 Oeste 9 Noroeste 0 -- -- --
2020-11-18 07:00:00 15.3 9 Noroeste 15 Noroeste 0 -- -- --
2020-11-18 06:00:00 15.7 9 Noroeste 11 Noroeste 0 -- -- --
2020-11-18 05:00:00 15.8 0 Calma -- -- -- -- -- --
2020-11-18 04:00:00 15.8 0 Calma 8 Sudeste 0 -- -- --
2020-11-18 03:00:00 15.4 4 Noroeste 5 Noroeste 0 -- -- --
2020-11-18 02:00:00 14.8 0 Calma 5 Noroeste 0 -- -- --
2020-11-18 01:00:00 14 5 Oeste 8 Oeste 0 -- -- --
2020-11-18 00:00:00 14.5 0 Calma 5 Noroeste 0 -- -- --
2020-11-17 23:00:00 15.4 3 Noroeste -- -- 0 -- -- --
2020-11-17 22:00:00 -- 9 Noroeste -- -- 0 -- -- --
2020-11-17 21:00:00 16.4 8 Oeste 11 Oeste 0 -- -- --
2020-11-17 20:00:00 17.1 4 Norte 13 Nordeste 0 -- -- --
2020-11-17 19:00:00 17.1 8 Este 15 Este 0 -- -- --
2020-11-17 18:00:00 17.4 12 Este 18 Este 0 -- -- --
2020-11-17 17:00:00 19.2 14 Sudeste 21 Este 0 -- -- --
2020-11-17 16:00:00 20 14 Sudeste 22 Este 0 -- -- --
2020-11-17 15:00:00 21 13 Este 21 Sudeste 0 -- -- --
2020-11-17 14:00:00 21.4 7 Este 15 Este 0 -- -- --
2020-11-17 13:00:00 20.9 4 Sudoeste 13 Sur 0 -- -- --
2020-11-17 12:00:00 19.7 2 Este 8 Este 0 -- -- --
2020-11-17 11:00:00 17.5 2 Noroeste 11 Oeste 0 -- -- --
2020-11-17 10:00:00 15.4 13 Oeste 18 Noroeste 0 -- -- --
2020-11-17 09:00:00 12.7 9 Oeste 13 Oeste 0 -- -- --
2020-11-17 08:00:00 11.1 6 Oeste 15 Noroeste 0 -- -- --
2020-11-17 07:00:00 11.4 10 Noroeste 15 Noroeste 0 -- -- --
2020-11-17 06:00:00 11.8 6 Noroeste 9 Oeste 0 -- -- --
2020-11-17 05:00:00 12.1 9 Oeste 9 Oeste 0 -- -- 43
2020-11-17 04:00:00 12.7 8 Oeste 11 Oeste 0 1018.1 -- 97
2020-11-17 03:00:00 13.6 8 Noroeste 9 Noroeste 0 1018.2 -- 95
2020-11-17 02:00:00 14 4 Oeste 8 Oeste 0 1017.9 -- 93
2020-11-17 01:00:00 14.7 6 Oeste 9 Noroeste 0 1018.4 -- 91
2020-11-17 00:00:00 16.5 4 Oeste 8 Noroeste 0 1018.5 -- 87
2020-11-16 23:00:00 16.3 8 Noroeste 13 Noroeste 0 1018.4 -- 88
2020-11-16 22:00:00 15.9 9 Noroeste -- -- 0 1018.2 -- 89
2020-11-16 21:00:00 17.5 0 Calma 8 Noroeste 0 1017.8 -- 83
2020-11-16 20:00:00 18.5 3 Nordeste 8 Nordeste 0 1017.7 -- 73
2020-11-16 19:00:00 18.6 3 Norte 9 Nordeste 0 1017.4 -- 73
2020-11-16 18:00:00 18.8 8 Nordeste 21 Nordeste 0 1016.6 -- 72
2020-11-16 17:00:00 19.4 15 Este 26 Sudeste 0 1015.8 -- 66
2020-11-16 16:00:00 19.9 17 Sudeste 26 Sudeste 0 1014.8 -- 72
2020-11-16 15:00:00 20.6 21 Sudeste 28 Este 0 1014.6 -- 68
2020-11-16 14:00:00 22.8 22 Este 30 Sudeste 0 1014.5 -- 58
2020-11-16 13:00:00 23 18 Sudeste 28 Sudeste 0 1014.6 -- 57
2020-11-16 12:00:00 24 11 Sur 18 Sur 0 1014.9 -- 56
2020-11-16 11:00:00 22.5 10 Sudoeste 21 Oeste 0 1014.8 -- 60
2020-11-16 10:00:00 18.9 14 Oeste 21 Oeste 0 1014 -- 76
2020-11-16 09:00:00 16.2 5 Oeste 15 Oeste 0 1013.4 -- 87
2020-11-16 08:00:00 14.9 6 Oeste 15 Oeste 0 1012.4 -- 91
2020-11-16 07:00:00 15.8 10 Oeste 21 Sudoeste 0 1011.7 -- 88
2020-11-16 06:00:00 18.4 16 Sudoeste 21 Sudoeste 0 1011.4 -- 75
2020-11-16 05:00:00 17.8 6 Sudoeste 11 Sudoeste 0 1011.3 -- 79
2020-11-16 04:00:00 18.8 11 Sudoeste 21 Sudoeste 0 1011.8 -- 75
2020-11-16 03:00:00 18.9 12 Sudoeste 18 Sudoeste 0 1011.9 -- 75
2020-11-16 02:00:00 17 7 Sudoeste 9 Sudoeste 0 1012.3 -- 84
2020-11-16 01:00:00 18.2 10 Sudoeste 13 Sudoeste 0 1012.5 -- 77
2020-11-16 00:00:00 17.2 12 Noroeste 17 Sudoeste 0 1012.5 -- 81
2020-11-15 23:00:00 18.5 5 Sudoeste 18 Sudoeste 0 1012.5 -- 74
2020-11-15 22:00:00 18.7 12 Sur 18 Sudoeste 0 1012.6 -- 74
2020-11-15 21:00:00 19.4 16 Sudoeste 22 Sur 0 1012.9 -- --
2020-11-15 20:00:00 19.3 13 Sur 22 Sudoeste 0 1013 -- 70
2020-11-15 19:00:00 20.1 17 Sudoeste 22 Sudoeste 0 1012.8 -- 67
2020-11-15 18:00:00 21.2 19 Sudoeste 28 Sudoeste 0 1012.4 -- 62
2020-11-15 17:00:00 23.1 18 Sudoeste 35 Oeste 0 1012.2 -- 57
2020-11-15 16:00:00 23.9 27 Oeste 41 Oeste 0 1011.8 -- 52
2020-11-15 15:00:00 23.3 36 Oeste 45 Oeste 0 1011.5 -- 54
2020-11-15 14:00:00 23.4 35 Oeste 54 Oeste 0 1011.8 -- 52
2020-11-15 13:00:00 22.7 32 Oeste 48 Oeste 0 1012.4 -- 53
2020-11-15 12:00:00 22 30 Oeste 45 Oeste 0 1013.2 -- 56
2020-11-15 11:00:00 21.4 21 Oeste 32 Oeste 0 1013.4 -- 59
2020-11-15 10:00:00 18.8 2 Sur 9 Este 0 1013.3 -- 71
2020-11-15 09:00:00 16.2 3 Noroeste 17 Sudoeste 0 1013.1 -- 83
2020-11-15 08:00:00 15.9 14 Sudoeste 21 Sudoeste 0 1012.6 -- 82
2020-11-15 07:00:00 15.2 18 Sudoeste 24 Sudoeste 0 1012 -- 87
2020-11-15 06:00:00 15.8 18 Sudoeste 26 Sudoeste 0 1011.7 -- 85
2020-11-15 05:00:00 13.2 0 Calma 4 Noroeste 0 1011.8 -- 97
2020-11-15 04:00:00 13.1 0 Calma 15 Oeste 0 1012.2 -- 98
2020-11-15 03:00:00 13.1 5 Sudoeste 11 Oeste 0 1012.5 -- 99
2020-11-15 02:00:00 13.8 4 Noroeste 9 Noroeste 0 1012.7 -- 98
2020-11-15 01:00:00 15.1 0 Calma 9 Noroeste 0 1013.1 -- 98
2020-11-15 00:00:00 15.5 6 Sudoeste 8 Sudoeste 0 1013.4 -- 100
2020-11-14 23:00:00 15.4 3 Noroeste 5 Norte 0.1 1013.7 -- 100
2020-11-14 22:00:00 15.6 2 Noroeste 9 Noroeste 0 1013.7 -- 100
2020-11-14 21:00:00 16.3 0 Calma 5 Oeste 0 1013.5 -- 98
2020-11-14 20:00:00 16.6 3 Este 5 Este 0 1013.4 -- 98
2020-11-14 19:00:00 16.6 4 Este 11 Sudeste 0 1013 -- 99
2020-11-14 18:00:00 17.1 11 Sudeste 15 Sudeste 0 1012.7 -- 93
2020-11-14 17:00:00 17.7 8 Sudeste 13 Sur 0 1012.6 -- 92
2020-11-14 16:00:00 17.8 9 Sur 15 Este 0 1012.7 -- 97
2020-11-14 15:00:00 18.9 0 Calma 5 Sudoeste 0 1012.9 -- 87
2020-11-14 14:00:00 18.9 0 Calma 8 Oeste 0 1013.2 -- 100
2020-11-14 13:00:00 -- -- -- -- -- -- -- -- --
2020-11-14 12:00:00 17.8 0 Calma -- -- -- 1014.6 -- 82
2020-11-14 11:00:00 -- -- -- -- -- -- -- -- --
2020-11-14 10:00:00 -- -- -- -- -- -- -- -- --
2020-11-14 09:00:00 -- -- -- -- -- -- -- -- --
2020-11-14 08:00:00 -- -- -- -- -- -- -- -- --
2020-11-14 07:00:00 -- -- -- -- -- -- -- -- --
2020-11-14 06:00:00 -- -- -- -- -- -- -- -- --
2020-11-14 05:00:00 -- -- -- -- -- -- -- -- --
2020-11-14 04:00:00 -- -- -- -- -- -- -- -- --
2020-11-14 03:00:00 14.1 0 Calma 8 Oeste 0 1014.2 -- 96
2020-11-14 02:00:00 13.7 4 Oeste 8 Noroeste 0 1014.5 -- 96
2020-11-14 01:00:00 14 3 Oeste 11 Noroeste 0 1014.9 -- 95
2020-11-14 00:00:00 14.2 10 Noroeste 13 Noroeste 0 1015 -- 92
2020-11-13 23:00:00 13.8 6 Noroeste 11 Noroeste 0 1015.1 -- 95
2020-11-13 22:00:00 13.8 9 Noroeste 11 Noroeste 0 1015 -- 96
2020-11-13 21:00:00 14 7 Noroeste 9 Noroeste 0 1014.6 -- 96
2020-11-13 20:00:00 15.1 0 Calma 8 Sudeste 0 1014.1 -- 90
2020-11-13 19:00:00 16.1 5 Este 8 Sudeste 0 1013.7 -- 85
2020-11-13 18:00:00 17.4 5 Sudeste 11 Sudeste 0 1013.2 -- 78
2020-11-13 17:00:00 19.3 6 Sudeste 13 Sudeste 0 1013 -- 68
2020-11-13 16:00:00 19.6 6 Sudeste 13 Este 0 1013 -- 64
2020-11-13 15:00:00 19.1 6 Este 11 Nordeste 0 1013.1 -- 66
2020-11-13 14:00:00 19.2 5 Este 11 Este 0 1013.5 -- 65
2020-11-13 13:00:00 18.5 0 Calma 5 Este 0 1014 -- 68
2020-11-13 12:00:00 18.1 0 Calma 8 Noroeste 0 1014.8 -- 64
2020-11-13 11:00:00 16.5 5 Noroeste 11 Noroeste 0 1014.8 -- 68
2020-11-13 10:00:00 14.9 9 Noroeste 18 Noroeste 0 1014.9 -- 74
2020-11-13 09:00:00 13.9 6 Noroeste 13 Noroeste 0 1014.4 -- 79
2020-11-13 08:00:00 13.4 9 Noroeste 21 Noroeste 0 1013.9 -- 79
2020-11-13 07:00:00 13.1 11 Noroeste 18 Noroeste 0 1013.7 -- 81
2020-11-13 06:00:00 13 8 Noroeste 13 Noroeste 0 1013.6 -- 83
2020-11-13 05:00:00 13.3 9 Noroeste 13 Noroeste 0 1013.7 -- 82
2020-11-13 04:00:00 12.7 11 Noroeste 18 Noroeste 0 1014 -- 84
2020-11-13 03:00:00 12.2 15 Noroeste 22 Noroeste 0 1014.4 -- 89
2020-11-13 02:00:00 12 14 Noroeste 21 Noroeste 0 1014.4 -- 91
2020-11-13 01:00:00 10.8 8 Oeste 11 Oeste 0 1015 -- 95
2020-11-13 00:00:00 11 7 Oeste 11 Noroeste 0 1015.1 -- 95
2020-11-12 23:00:00 11.8 8 Noroeste -- -- 0 1015.3 -- 95
2020-11-12 22:00:00 12.2 4 Oeste 9 Noroeste 0 1015.5 -- 93
2020-11-12 21:00:00 12.5 7 Oeste 11 Oeste 0 1015.2 -- 92
2020-11-12 20:00:00 13.6 6 Noroeste 9 Noroeste 0 1014.9 -- 86
2020-11-12 19:00:00 15.9 5 Este 11 Este 0 1014.9 -- 77
2020-11-12 18:00:00 16.5 9 Este 18 Este 0 1014.6 -- 74
2020-11-12 17:00:00 18.4 13 Este 17 Este 0 1014.3 -- 63
2020-11-12 16:00:00 19.5 8 Este 13 Este 0 1014.1 -- 53
2020-11-12 15:00:00 19.2 8 Este 17 Nordeste 0 1014.4 -- 56
2020-11-12 14:00:00 19.2 10 Este 15 Este 0 1014.9 -- 61
2020-11-12 13:00:00 18.9 6 Este 15 Este 0 1015.5 -- 55
2020-11-12 12:00:00 18.2 2 Este 9 Este 0 1016.3 -- 54
2020-11-12 11:00:00 15.8 0 Calma 5 Nordeste 0 1016.7 -- 64
2020-11-12 10:00:00 13.3 0 Calma 8 Oeste 0 1016.5 -- 77
2020-11-12 09:00:00 10.5 0 Calma 9 Oeste 0 1016.2 -- 89
2020-11-12 08:00:00 8.8 6 Oeste 9 Oeste 0 1015.8 -- 93
2020-11-12 07:00:00 9.2 2 Oeste 11 Oeste 0 1015.3 -- 94
2020-11-12 06:00:00 9.2 5 Oeste 9 Oeste 0 1015.3 -- 94
2020-11-12 05:00:00 9.6 8 Oeste 15 Oeste 0 1015.3 -- 93
2020-11-12 04:00:00 10.5 8 Oeste 15 Noroeste 0 1015.6 -- 91
2020-11-12 03:00:00 10 9 Oeste 11 Oeste 0 1016.2 -- 95
2020-11-12 02:00:00 11.1 6 Oeste 13 Noroeste 0 1016.5 -- 93
2020-11-12 01:00:00 11.7 11 Noroeste 15 Noroeste 0 1016.9 -- 93
2020-11-12 00:00:00 11.9 5 Oeste 17 Noroeste 0 1017 -- 95
2020-11-11 23:00:00 13.1 14 Noroeste 17 Noroeste 0 1017.2 -- 93
2020-11-11 22:00:00 12.9 5 Noroeste 13 Noroeste 0 1016.7 -- 94
2020-11-11 21:00:00 13.6 11 Noroeste 17 Noroeste 0 1016.9 -- 94
2020-11-11 20:00:00 13.7 5 Noroeste 8 Noroeste 0 1016.7 -- 93
2020-11-11 19:00:00 15.8 0 Calma 15 Sur 0 1016.3 -- 86
2020-11-11 18:00:00 16.8 9 Sudeste 21 Sudeste 0 1015.8 -- 79
2020-11-11 17:00:00 18.3 14 Sudeste 22 Sur 0 1015.7 -- 70
2020-11-11 16:00:00 19.4 17 Sudeste 22 Sudeste 0 1015.7 -- 66
2020-11-11 15:00:00 20.6 11 Sudeste 21 Sudeste 0 1015.9 -- 58
2020-11-11 14:00:00 20.5 12 Sudeste 18 Sudeste 0 1016.6 -- 57
2020-11-11 13:00:00 20.5 4 Sudeste 13 Sur 0 1017.4 -- 56
2020-11-11 12:00:00 18.8 0 Calma 8 Norte 0 1018.3 -- 60
2020-11-11 11:00:00 16.8 0 Calma 9 Noroeste 0 1018.9 -- 71
2020-11-11 10:00:00 14.3 5 Noroeste 9 Noroeste 0 1019.1 -- 81
2020-11-11 09:00:00 12 8 Oeste 15 Oeste 0 1019.3 -- 92
2020-11-11 08:00:00 9.9 11 Oeste 13 Oeste 0 1019 -- 93
2020-11-11 07:00:00 10.2 7 Oeste 15 Noroeste -- 1019 -- 95
2020-11-11 06:00:00 10.4 7 Noroeste 11 Oeste 0 1019.1 -- 98
2020-11-11 05:00:00 10.4 8 Oeste 9 Oeste 0 1019.2 -- 98
2020-11-11 04:00:00 10.9 8 Noroeste 11 Oeste 0 1019.5 -- 98
2020-11-11 03:00:00 12.1 8 Oeste 9 Oeste 0 1019.7 -- 97
2020-11-11 02:00:00 12.6 4 Oeste 11 Noroeste 0 1019.9 -- 96
2020-11-11 01:00:00 12.7 3 Noroeste 11 Noroeste 0 1020.2 -- 98
2020-11-11 00:00:00 13 9 Noroeste -- -- 0 1020.4 -- 98
2020-11-10 23:00:00 13.3 4 Oeste -- -- 0 1020.1 -- 97
2020-11-10 22:00:00 14.5 8 Noroeste 9 Noroeste 0 1020 -- 94
2020-11-10 21:00:00 15.6 0 Calma 8 Sudeste 0 1019.7 -- 92
2020-11-10 20:00:00 16.8 5 Sudeste 9 Sudeste 0 1019.4 -- 86
2020-11-10 19:00:00 16.8 7 Sudeste 13 Sudeste 0 1018.9 -- 88
2020-11-10 18:00:00 17.4 10 Sudeste 18 Sudeste 0 1018.5 -- 83
2020-11-10 17:00:00 18.9 14 Sudeste 22 Sudeste 0 1017.8 -- 72
2020-11-10 16:00:00 19.9 14 Sudeste 21 Sudeste 0 1017.7 -- 65
2020-11-10 15:00:00 20.9 10 Este 18 Este 0 1017.5 -- 54
2020-11-10 14:00:00 20.9 10 Este 17 Nordeste -- 1017.8 -- 49
2020-11-10 13:00:00 20.9 3 Este 15 Sudeste -- 1018.4 -- 48
2020-11-10 12:00:00 19.8 0 Calma 5 Noroeste -- 1018.9 -- 50
2020-11-10 11:00:00 17.8 0 Calma 9 Noroeste 0 1019.1 -- 63
2020-11-10 10:00:00 15.2 5 Noroeste 8 Noroeste 0 1018.9 -- 71
2020-11-10 09:00:00 12.5 6 Noroeste 9 Oeste 0 1018.3 -- 84
2020-11-10 08:00:00 10.5 9 Oeste 13 Oeste 0 1017.4 -- 88
2020-11-10 07:00:00 10 7 Oeste 13 Oeste 0 1016.7 -- 92
2020-11-10 06:00:00 10.7 11 Oeste 15 Oeste 0 1016.4 -- 91
2020-11-10 05:00:00 10.5 13 Oeste 15 Oeste 0 1016.1 -- 93
2020-11-10 04:00:00 11.8 9 Noroeste 17 Noroeste 0 1016.1 -- 88
2020-11-10 03:00:00 11.5 8 Oeste 13 Oeste 0 1016.3 -- 97
2020-11-10 02:00:00 12.1 9 Noroeste -- -- 0 1016.1 -- 98
2020-11-10 01:00:00 12.2 8 Noroeste 13 Oeste 0 1016.3 -- 97
2020-11-10 00:00:00 12.8 3 Noroeste 13 Oeste 0 1016.5 -- 97
2020-11-09 23:00:00 13.5 8 Oeste 13 Noroeste 0 1016.4 -- 95
2020-11-09 22:00:00 14.9 9 Sudoeste 13 Nordeste 0 1016.3 -- 91
2020-11-09 21:00:00 16.1 6 Nordeste 17 Nordeste 0 1015.5 -- 87
2020-11-09 20:00:00 16.4 13 Nordeste 24 Nordeste 0 1015.1 -- 86
2020-11-09 19:00:00 17.4 14 Nordeste 18 Nordeste 0 1014.5 -- 82
2020-11-09 18:00:00 18.7 6 Este 15 Este 0 1013.7 -- 74
2020-11-09 17:00:00 20.6 11 Sudeste 21 Sudeste 0 1013.3 -- 67
2020-11-09 16:00:00 21.1 16 Sudeste 22 Sur 0 1013.2 -- 60
2020-11-09 15:00:00 21.2 15 Sudeste 22 Sudeste 0 1013.2 -- 57
2020-11-09 14:00:00 21.1 12 Sudeste 22 Este 0 1013.6 -- 62
2020-11-09 13:00:00 21.8 10 Sudeste 15 Sudeste 0 1014.2 -- 55
2020-11-09 12:00:00 19.1 0 Calma 8 Norte 0 1014.9 -- 61
2020-11-09 11:00:00 17.2 0 Calma 8 Norte 0 1015.3 -- 67
2020-11-09 10:00:00 14.3 3 Noroeste 8 Noroeste 0 1015.4 -- 77
2020-11-09 09:00:00 11.1 5 Oeste 8 Oeste 0 1015.3 -- 93
2020-11-09 08:00:00 9.4 3 Noroeste 11 Noroeste 0 1014.6 -- 95
2020-11-09 07:00:00 9.2 6 Sudoeste 9 Sudoeste 0 1014.3 -- 96
2020-11-09 06:00:00 9.7 0 Calma -- -- 0 1014.1 -- 96
2020-11-09 05:00:00 11.7 6 Oeste 13 Oeste 0 1014 -- 85
2020-11-09 04:00:00 10.6 8 Noroeste 11 Noroeste 0 1013.9 -- 94
2020-11-09 03:00:00 10.4 8 Oeste 11 Oeste 0 1014.2 -- 96
2020-11-09 02:00:00 10.5 6 Oeste 9 Oeste 0 1014.2 -- 97
2020-11-09 01:00:00 11.3 7 Oeste -- -- 0 1014.9 -- 96
2020-11-09 00:00:00 12.3 10 Noroeste 13 Noroeste 0 1015 -- 91
2020-11-08 23:00:00 12.5 8 Noroeste 11 Noroeste 0 1014.8 -- 92
2020-11-08 22:00:00 12.8 6 Oeste 13 Noroeste 0 1014.7 -- 93
2020-11-08 21:00:00 13.2 6 Noroeste 9 Noroeste 0 1014.6 -- 94
2020-11-08 20:00:00 13.9 6 Noroeste 9 Noroeste 0 1014.6 -- 92
2020-11-08 19:00:00 16 0 Calma 11 Sudeste 0 1014.5 -- 80
2020-11-08 18:00:00 17.7 9 Sudeste 13 Sur 0 1014.1 -- 72
2020-11-08 17:00:00 19.5 11 Sudeste 17 Sudeste 0 1014 -- 59
2020-11-08 16:00:00 20.7 11 Sudeste 15 Sudeste 0 1014 -- 60
2020-11-08 15:00:00 21.6 12 Sudeste 17 Sudeste 0 1014.4 -- 56
2020-11-08 14:00:00 21.7 0 Calma 5 Oeste 0 1014.9 -- 49
2020-11-08 13:00:00 19.4 0 Calma 5 Nordeste 0 1015.7 -- 62
2020-11-08 12:00:00 17.6 0 Calma 4 Nordeste 0 1016.6 -- 66
2020-11-08 11:00:00 16 0 Calma 5 Norte 0 1016.9 -- 71
2020-11-08 10:00:00 15 0 Calma 8 Noroeste 0 1017 -- 76
2020-11-08 09:00:00 12.7 5 Norte 13 Oeste 0 1016.6 -- 85
2020-11-08 08:00:00 10.3 3 Noroeste 8 Noroeste 0 1016.1 -- 93
2020-11-08 07:00:00 10 2 Noroeste 9 Oeste 0 1015.7 -- 93
2020-11-08 06:00:00 10.8 7 Sudoeste 18 Noroeste 0 1015.8 -- 92
2020-11-08 05:00:00 11.7 16 Oeste 22 Oeste 0 1015.8 -- 88
2020-11-08 04:00:00 11.9 16 Oeste 21 Oeste 0 1016.2 -- 89
2020-11-08 03:00:00 12.4 15 Oeste 21 Oeste 0 1016.3 -- 87
2020-11-08 02:00:00 12.5 15 Oeste 18 Oeste 0 1016.2 -- 88
2020-11-08 01:00:00 12.6 11 Oeste 13 Oeste 0 1016.7 -- 91
2020-11-08 00:00:00 13.3 10 Noroeste 15 Noroeste 0 1016.6 -- 91
2020-11-07 23:00:00 13.7 9 Oeste 21 Noroeste 0 1016.4 -- 88
2020-11-07 22:00:00 14.2 0 Calma 13 Noroeste 0 1016 -- 89
2020-11-07 21:00:00 15.5 14 Oeste 18 Oeste 0 1015.5 -- 82
2020-11-07 20:00:00 15.3 12 Oeste 21 Oeste 0 1015.1 -- 85
2020-11-07 19:00:00 17.5 15 Oeste 28 Oeste 0 1014.6 -- 73
2020-11-07 18:00:00 19 12 Sudoeste 18 Sudoeste 0 1013.8 -- 67
2020-11-07 17:00:00 19.5 0 Calma 9 Sur 0 1013.3 -- 74
2020-11-07 16:00:00 19.7 6 Sur 22 Sudeste 0 1013 -- 72
2020-11-07 15:00:00 19.3 13 Sudeste 18 Sudeste 0.1 1012.5 -- 77
2020-11-07 14:00:00 17.4 13 Sudeste 17 Sudeste 0.4 1013 -- 85
2020-11-07 13:00:00 18.5 8 Sudeste 15 Sur 0 1012.7 -- 76
2020-11-07 12:00:00 18 4 Sur 13 Sudeste 0 1012.8 -- 80
2020-11-07 11:00:00 16.8 5 Este 11 Este 0 1012.7 -- 88
2020-11-07 10:00:00 15.7 9 Sur 17 Sudoeste 0 1011.5 -- 90
2020-11-07 09:00:00 15 10 Sudoeste 15 Sudoeste 0.1 1010.9 -- 93
2020-11-07 08:00:00 14.6 9 Sur 18 Noroeste 0.1 1010.1 -- 95
2020-11-07 07:00:00 14.2 17 Noroeste 50 Oeste 6.4 1009.6 -- 97
2020-11-07 06:00:00 18.8 23 Nordeste 41 Este 0.9 1008.1 -- 94
2020-11-07 05:00:00 18.6 27 Nordeste 48 Este 0 1008.3 -- 94
2020-11-07 04:00:00 18.7 27 Nordeste 45 Nordeste 0 1008.2 -- 93
2020-11-07 03:00:00 18.8 30 Nordeste 46 Nordeste 0 1008.9 -- 92
2020-11-07 02:00:00 18.9 26 Nordeste 48 Este 0 1010.1 -- 92
2020-11-07 01:00:00 18.9 27 Nordeste 39 Nordeste 0 1010.3 -- 91
2020-11-07 00:00:00 18.8 23 Nordeste 42 Nordeste 0 1011.1 -- 91
2020-11-06 23:00:00 18.8 23 Nordeste 41 Nordeste 0 1011.6 -- 92
2020-11-06 22:00:00 18.8 24 Nordeste 42 Nordeste 0 1011.6 -- 93
2020-11-06 21:00:00 18.8 24 Nordeste 39 Nordeste 0 1012.1 -- 94
2020-11-06 20:00:00 18.7 22 Nordeste 39 Nordeste 0 1012.6 -- 94
2020-11-06 19:00:00 18.7 21 Nordeste 37 Nordeste 0 1012.5 -- 94
2020-11-06 18:00:00 18.8 24 Nordeste 46 Nordeste 0 1012.2 -- 94
2020-11-06 17:00:00 19.3 24 Nordeste 37 Nordeste 0 1012.6 -- 91
2020-11-06 16:00:00 19.7 22 Nordeste 41 Nordeste 0 1012.7 -- 90
2020-11-06 15:00:00 20.1 23 Nordeste 35 Nordeste 0 1013.1 -- 89
2020-11-06 14:00:00 19.7 19 Este 35 Nordeste 0 1014.1 -- 90
2020-11-06 13:00:00 19.6 23 Nordeste 37 Nordeste 0 1014.4 -- 91
2020-11-06 12:00:00 19 24 Nordeste 39 Nordeste 0 1015.3 -- 92
2020-11-06 11:00:00 19 23 Nordeste 42 Nordeste 0 1015.3 0.6 92
2020-11-06 10:00:00 18.8 25 Nordeste 42 Nordeste 0 1015.2 -- 92
2020-11-06 09:00:00 18.5 24 Nordeste 35 Nordeste 0 1015.1 -- 94
2020-11-06 08:00:00 18.3 23 Nordeste 35 Nordeste 0 1014.7 -- 94
2020-11-06 07:00:00 18.3 20 Nordeste 35 Nordeste 0 1014.3 -- 91
2020-11-06 06:00:00 18.2 22 Nordeste 35 Nordeste 0 1014.2 -- 83
2020-11-06 05:00:00 18.1 18 Nordeste 33 Nordeste 0 1014.1 -- 86
2020-11-06 04:00:00 17.9 21 Nordeste 35 Nordeste 0 1013.8 -- 84
2020-11-06 03:00:00 17.7 13 Norte 21 Norte 0 1014.3 -- 85
2020-11-06 02:00:00 15.4 9 Noroeste 21 Noroeste 0 1014.2 -- 96
2020-11-06 01:00:00 15.6 15 Oeste 18 Noroeste 0 1014.6 -- 95
2020-11-06 00:00:00 16.6 10 Nordeste 28 Norte 0 1014.5 -- 90
2020-11-05 23:00:00 16.2 18 Nordeste 26 Nordeste 0 1014.5 -- 96
2020-11-05 22:00:00 16.4 17 Nordeste 32 Nordeste 0 1014.6 -- 94
2020-11-05 21:00:00 16.7 11 Nordeste 41 Nordeste 0 1014.3 -- 91
2020-11-05 20:00:00 16.4 26 Nordeste 45 Nordeste 0.2 1013.5 -- 95
2020-11-05 19:00:00 16.7 31 Nordeste 59 Nordeste 0.1 1013.3 -- 93
2020-11-05 18:00:00 16 34 Nordeste 55 Nordeste 14.3 1012.5 -- 100
2020-11-05 17:00:00 15.7 22 Norte 59 Nordeste 23.3 1013.5 -- 100
2020-11-05 16:00:00 15.5 33 Nordeste 67 Nordeste 9.2 1013.6 -- 99
2020-11-05 15:00:00 15.2 34 Nordeste 67 Nordeste 4.2 1012.9 -- 98
2020-11-05 14:00:00 15.3 39 Nordeste 68 Nordeste 2.1 1013.6 -- 96
2020-11-05 13:00:00 15.7 43 Nordeste 65 Nordeste 0.1 1014.3 -- 90
2020-11-05 12:00:00 15.2 37 Nordeste 55 Nordeste 0.2 1015.5 -- 89
2020-11-05 11:00:00 14.8 31 Nordeste 52 Nordeste 1.1 1016.1 -- 89
2020-11-05 10:00:00 14.8 32 Nordeste 52 Nordeste 0.1 1016.1 -- 88
2020-11-05 09:00:00 14.6 30 Nordeste 52 Nordeste 0 1015.9 -- 86
2020-11-05 08:00:00 14.2 34 Nordeste 59 Nordeste 0 1015.5 -- 86
2020-11-05 07:00:00 14 35 Nordeste 55 Nordeste 0.2 1015.2 -- 86
2020-11-05 06:00:00 13.6 33 Nordeste 55 Nordeste 3.4 1015.1 -- 92
2020-11-05 05:00:00 13.2 31 Nordeste 48 Nordeste 4.1 1015.1 -- 96
2020-11-05 04:00:00 13.3 30 Nordeste 45 Nordeste 2.9 1015 -- 96
2020-11-05 03:00:00 12.9 24 Norte 41 Nordeste 5.1 1015.3 -- 98
2020-11-05 02:00:00 12.6 26 Norte 46 Norte 8.6 1015.5 -- 99
2020-11-05 01:00:00 12.6 27 Norte 55 Nordeste 12.2 1015.2 -- 99
2020-11-05 00:00:00 12.7 35 Nordeste 63 Nordeste 2.9 1014.7 -- 98
2020-11-04 23:00:00 13.2 21 Norte 39 Nordeste 0.8 1014.5 -- 92
2020-11-04 22:00:00 13.5 19 Norte 48 Norte 0.1 1014.5 -- 85
2020-11-04 21:00:00 14 26 Nordeste 58 Norte 0 1014 -- 78
2020-11-04 20:00:00 13.9 23 Norte 41 Norte 0 1013.6 -- 80
2020-11-04 19:00:00 14 28 Nordeste 42 Nordeste 0 1012.8 -- 79
2020-11-04 18:00:00 14 21 Nordeste 45 Nordeste 0 1012.4 -- 80
2020-11-04 17:00:00 14 22 Nordeste 39 Nordeste 0 1012.6 -- 80
2020-11-04 16:00:00 14.1 21 Norte 39 Norte 0 1012.8 -- 80
2020-11-04 15:00:00 14.1 16 Norte 26 Norte 0 1012.9 -- 81
2020-11-04 14:00:00 13.5 10 Noroeste 15 Noroeste 0.1 1013.2 -- 92
2020-11-04 13:00:00 13.3 13 Noroeste 22 Noroeste 0.6 1013.7 -- 94
2020-11-04 12:00:00 13.4 15 Noroeste 22 Noroeste 0.3 1014.4 -- 94
2020-11-04 11:00:00 13.9 12 Noroeste 18 Noroeste 0.1 1014.6 0.6 92
2020-11-04 10:00:00 13.9 5 Norte 11 Norte 0 1014.2 -- 88
2020-11-04 09:00:00 13.5 5 Norte 21 Noroeste 0.4 1013.9 -- 94
2020-11-04 08:00:00 13.5 14 Noroeste 24 Noroeste 0.3 1014 -- 93
2020-11-04 07:00:00 14.2 11 Noroeste 18 Noroeste 0.1 1013.8 -- 91
2020-11-04 06:00:00 14.8 10 Norte 15 Norte 0 1013.7 -- 80
2020-11-04 05:00:00 15.1 8 Este 13 Este 0 1014.2 -- 79
2020-11-04 04:00:00 15.1 9 Noroeste 15 Norte 0 1014.7 -- 82
2020-11-04 03:00:00 15.6 11 Norte 18 Noroeste 0 1015.5 -- 78
2020-11-04 02:00:00 15.8 13 Noroeste 24 Noroeste 0 1015.9 -- 78
2020-11-04 01:00:00 17.6 9 Nordeste 17 Norte 0 1016.5 -- 54
2020-11-04 00:00:00 17.7 12 Nordeste 22 Este 0 1016.9 -- 54
2020-11-03 23:00:00 18.1 11 Nordeste 26 Este 0 1017.3 -- 67
2020-11-03 22:00:00 18.4 14 Este 24 Este 0 1017.4 -- 72
2020-11-03 21:00:00 18.5 11 Este 17 Este 0 1017.5 -- 79
2020-11-03 20:00:00 18.7 10 Este 15 Este 0 1017.4 -- 82
2020-11-03 19:00:00 18.9 12 Este 22 Este 0 1017.3 -- 83
2020-11-03 18:00:00 19.1 12 Este 28 Este 0 1017 -- 82
2020-11-03 17:00:00 19.6 19 Este 26 Este 0 1016.5 -- 79
2020-11-03 16:00:00 20 15 Este 22 Este 0 1016.4 -- 75
2020-11-03 15:00:00 20.3 13 Este 24 Este 0 1016.6 -- 72
2020-11-03 14:00:00 20.6 13 Este 22 Este 0 1016.8 -- 69
2020-11-03 13:00:00 20.2 8 Este 13 Este 0 1017.3 -- 67
2020-11-03 12:00:00 19.4 2 Sur 11 Noroeste 0 1017.7 -- 68
2020-11-03 11:00:00 17.9 8 Noroeste 15 Oeste 0 1017.8 -- 71
2020-11-03 10:00:00 15.3 11 Noroeste 17 Noroeste 0 1017.8 -- 79
2020-11-03 09:00:00 13.1 10 Noroeste 15 Noroeste 0 1017.3 -- 83
2020-11-03 08:00:00 11.4 9 Noroeste 21 Noroeste 0 1016.5 -- 85
2020-11-03 07:00:00 10.6 15 Noroeste 21 Noroeste 0 1016 -- 90
2020-11-03 06:00:00 10.7 13 Noroeste 17 Noroeste 0 1015.9 -- 92
2020-11-03 05:00:00 10.4 8 Noroeste 9 Noroeste 0 1015.5 -- 94
2020-11-03 04:00:00 11.3 5 Noroeste 13 Noroeste 0 1015.3 -- 92
2020-11-03 03:00:00 11.1 6 Noroeste 11 Noroeste 0 1015.1 -- 93
2020-11-03 02:00:00 12.1 11 Noroeste 17 Noroeste 0 1015.1 -- 91
2020-11-03 01:00:00 12 8 Noroeste 13 Noroeste 0 1015.1 -- 94
2020-11-03 00:00:00 12.9 10 Noroeste 11 Noroeste 0 1015.2 -- 94
2020-11-02 23:00:00 13 6 Noroeste 9 Noroeste 0 1015.2 -- 94
2020-11-02 22:00:00 13.5 8 Oeste 13 Oeste 0 1015 -- 93
2020-11-02 21:00:00 14.8 7 Oeste 13 Noroeste 0 1014.9 -- 92
2020-11-02 20:00:00 17.8 11 Nordeste 17 Este 0 1014.5 -- 88
2020-11-02 19:00:00 18.2 8 Norte 15 Nordeste 0 1014 -- 90
2020-11-02 18:00:00 19 9 Nordeste 26 Nordeste 0 1013.5 -- 83
2020-11-02 17:00:00 20.1 14 Nordeste 22 Nordeste 0 1013.2 -- 78
2020-11-02 16:00:00 22.1 15 Este 26 Este 0 1013.1 -- 61
2020-11-02 15:00:00 22.7 15 Sudeste 22 Sudeste 0 1013.1 -- 57
2020-11-02 14:00:00 23.4 14 Sudeste 24 Sudeste 0 1013.5 -- 54
2020-11-02 13:00:00 23.7 7 Sudeste 17 Este 0 1014.3 -- 36
2020-11-02 12:00:00 22.1 0 Calma 9 Nordeste 0 1015.2 -- 36
2020-11-02 11:00:00 19.9 0 Calma 22 Norte 0 1015.6 -- 44
2020-11-02 10:00:00 16.3 7 Noroeste 9 Oeste 0 1015.9 -- 56
2020-11-02 09:00:00 12.2 4 Oeste 11 Oeste 0 1015.6 -- 80
2020-11-02 08:00:00 9.5 9 Oeste 11 Oeste 0 1014.8 -- 87
2020-11-02 07:00:00 8.9 4 Oeste 8 Oeste 0 1014.6 -- 88
2020-11-02 06:00:00 9.4 8 Oeste 9 Oeste 0 1014.5 -- 86
2020-11-02 05:00:00 9.3 7 Noroeste 11 Oeste 0 1014.4 -- 92
2020-11-02 04:00:00 10.1 8 Noroeste 11 Noroeste 0 1014.5 -- 90
2020-11-02 03:00:00 11.1 10 Noroeste 11 Noroeste 0 1014.9 -- 89
2020-11-02 02:00:00 12.1 7 Noroeste 9 Oeste 0 1015.1 -- 87
2020-11-02 01:00:00 11.8 8 Oeste 13 Noroeste 0 1015.4 -- 91
2020-11-02 00:00:00 12.9 8 Noroeste -- -- 0 1015.5 -- 91
2020-11-01 23:00:00 13.1 5 Oeste 13 Noroeste 0 1015.8 -- 92
2020-11-01 22:00:00 14 8 Oeste -- -- 0 1015.7 -- 92
2020-11-01 21:00:00 15.3 6 Noroeste -- -- 0 1015.3 -- 92
2020-11-01 20:00:00 17.8 5 Noroeste 9 Norte 0 1015.2 -- 89
2020-11-01 19:00:00 19.1 7 Norte 13 Norte 0 1015 -- 87
2020-11-01 18:00:00 20.5 8 Este 17 Sudeste 0 1014.7 -- 67
2020-11-01 17:00:00 21.9 14 Sudeste 21 Sudeste 0 1014.4 -- 62
2020-11-01 16:00:00 23.3 15 Sudeste 22 Este 0 1014.3 -- 48
2020-11-01 15:00:00 24.7 18 Este 24 Sudeste 0 1014.4 -- 46
2020-11-01 14:00:00 25.6 10 Sudeste 17 Sudeste 0 1014.9 -- 38
2020-11-01 13:00:00 24.8 10 Sudeste 15 Sudeste 0 1015.8 -- 37
2020-11-01 12:00:00 23.6 6 Este 15 Este 0 1016.7 -- 39
2020-11-01 11:00:00 20.8 2 Oeste 11 Noroeste 0 1017.3 -- 48
2020-11-01 10:00:00 17.3 9 Noroeste 11 Noroeste 0 1017.1 -- 58
2020-11-01 09:00:00 12.8 5 Noroeste 13 Noroeste 0 1016.9 -- 79
2020-11-01 08:00:00 10 7 Oeste 11 Noroeste 0 1016.5 -- 92
2020-11-01 07:00:00 10 8 Oeste 9 Oeste 0 1016.1 -- 92
2020-11-01 06:00:00 11.3 2 Oeste 8 Oeste 0 1016 -- 92
2020-11-01 05:00:00 11.2 0 Calma 5 Oeste 0 1015.9 -- 94
2020-11-01 04:00:00 11.9 0 Calma 8 Noroeste 0 1016 -- 94
2020-11-01 03:00:00 12 5 Oeste 9 Oeste 0 1016 -- 95
2020-11-01 02:00:00 12.3 6 Oeste 13 Noroeste 0 1016.3 -- 95
2020-11-01 01:00:00 12.3 9 Oeste 18 Noroeste 0 1016.4 -- 95
2020-11-01 00:00:00 13.7 16 Noroeste 21 Noroeste 0 1017 -- 96
2020-10-31 23:00:00 13.8 4 Oeste 15 Oeste 0 1016.8 -- 95
2020-10-31 22:00:00 14.4 8 Oeste 15 Noroeste 0 1017.3 -- 95
2020-10-31 21:00:00 15.6 7 Oeste 15 Noroeste 0 1016.9 -- 93
2020-10-31 20:00:00 17.1 10 Noroeste 15 Noroeste 0 1016.5 -- 92
2020-10-31 19:00:00 18.5 7 Nordeste 13 Nordeste 0 1015.9 -- 91
2020-10-31 18:00:00 19.5 9 Este 17 Este 0 1015.5 -- 84
2020-10-31 17:00:00 20.8 13 Este 30 Nordeste 0 1015.3 -- 70
2020-10-31 16:00:00 21.9 11 Este 21 Sudeste 0 1015.3 -- 66
2020-10-31 15:00:00 22.3 13 Sudeste 22 Sudeste 0 1015.1 -- 62
2020-10-31 14:00:00 23.2 15 Este 22 Sudeste 0 1015.8 -- 58
2020-10-31 13:00:00 22.8 12 Sudeste 17 Este 0 1016.5 -- 49
2020-10-31 12:00:00 21.5 10 Sudeste 17 Sudeste 0 1017.4 -- 52
2020-10-31 11:00:00 20 3 Sudeste 9 Sudeste 0 1017.6 -- 57
2020-10-31 10:00:00 15.9 0 Calma 5 Oeste 0 1018.1 -- 73
2020-10-31 09:00:00 12 0 Calma 8 Oeste 0 1017.8 -- 88
2020-10-31 08:00:00 9.2 6 Sudoeste 9 Noroeste 0 1017.5 -- 95
2020-10-31 07:00:00 9 5 Oeste 9 Noroeste 0 1017.2 -- 94
2020-10-31 06:00:00 9.6 7 Noroeste -- -- 0 1017.2 -- 96
2020-10-31 05:00:00 10.2 6 Oeste 9 Oeste 0 1017.2 -- 97
2020-10-31 04:00:00 10.9 5 Noroeste -- -- 0 1017.2 -- 98
2020-10-31 03:00:00 11.3 8 Noroeste 13 Noroeste 0 1017.7 -- 97
2020-10-31 02:00:00 11.4 8 Noroeste 9 Noroeste 0 1017.7 -- 100
2020-10-31 01:00:00 13.2 4 Noroeste 9 Oeste 0 1017.9 -- 100
2020-10-31 00:00:00 14.6 8 Noroeste 13 Noroeste 0 1018 -- 100
2020-10-30 23:00:00 14.5 8 Noroeste 11 Oeste 0 1018.2 -- 99
2020-10-30 22:00:00 14.4 6 Noroeste 11 Noroeste 0 1018.1 -- 96
2020-10-30 21:00:00 16.5 6 Noroeste 11 Noroeste 0 1017.8 -- 89
2020-10-30 20:00:00 18.1 8 Norte 13 Norte 0 1017.9 -- 88
2020-10-30 19:00:00 18.5 9 Nordeste 15 Nordeste 0 1017.6 -- 88
2020-10-30 18:00:00 19.4 10 Este 21 Este 0 1017 -- 83
2020-10-30 17:00:00 20.9 13 Este 22 Sudeste 0 1016.8 -- 73
2020-10-30 16:00:00 21.5 16 Este 22 Este 0 1016.6 -- 69
2020-10-30 15:00:00 22.4 14 Sudeste 24 Sudeste 0 1016.8 -- 64
2020-10-30 14:00:00 23.2 14 Este 21 Este 0 1017.2 -- 56
2020-10-30 13:00:00 23.7 7 Este 17 Este 0 1017.9 -- 42
2020-10-30 12:00:00 21.8 2 Este 17 Este 0 1018.7 -- 42
2020-10-30 11:00:00 18.9 0 Calma 9 Noroeste 0 1019 -- 50
2020-10-30 10:00:00 15.7 4 Oeste 8 Oeste 0 1019.3 -- 58
2020-10-30 09:00:00 12.5 0 Calma 8 Oeste 0 1019.1 -- 76
2020-10-30 08:00:00 9.4 0 Calma 9 Oeste 0 1018.6 -- 88
2020-10-30 07:00:00 9.4 0 Calma 11 Oeste 0 1018.3 -- 89
2020-10-30 06:00:00 9.2 9 Oeste 15 Oeste 0 1018.4 -- 91
2020-10-30 05:00:00 10.1 8 Noroeste 11 Oeste 0 1018.5 -- 88
2020-10-30 04:00:00 10.1 6 Oeste 13 Oeste 0 1018.7 -- 90
2020-10-30 03:00:00 10.4 8 Oeste 11 Noroeste 0 1018.9 -- 91
2020-10-30 02:00:00 11.2 8 Noroeste 11 Oeste 0 1019.1 -- 90
2020-10-30 01:00:00 11.3 6 Oeste 13 Noroeste 0 1019.1 -- 89
2020-10-30 00:00:00 12.7 11 Noroeste 17 Noroeste 0 1019.2 -- 87
2020-10-29 23:00:00 12.5 7 Oeste 11 Oeste 0 1019.2 -- 89
2020-10-29 22:00:00 13.4 6 Oeste 11 Noroeste 0 1019.2 -- 88
2020-10-29 21:00:00 15 6 Norte 11 Norte 0 1018.8 -- 85
2020-10-29 20:00:00 17.5 6 Norte 9 Norte 0 1018.6 -- 80
2020-10-29 19:00:00 18.1 0 Calma 13 Sudeste 0 1018.2 -- 79
2020-10-29 18:00:00 19.5 9 Sudeste 18 Sudeste 0 1017.8 -- 63
2020-10-29 17:00:00 21.1 16 Sudeste 22 Sudeste 0 1017.6 -- 54
2020-10-29 16:00:00 22.2 14 Este 21 Sudeste 0 1017.4 -- 52
2020-10-29 15:00:00 22.6 14 Este 24 Nordeste 0 1017.4 -- 44
2020-10-29 14:00:00 23.5 14 Este 22 Este 0 1017.8 -- 43
2020-10-29 13:00:00 22.9 8 Sudeste 17 Sudeste 0 1018.7 -- 42
2020-10-29 12:00:00 22.2 8 Este 17 Este 0 1019.5 -- 44
2020-10-29 11:00:00 20.6 4 Nordeste 11 Norte 0 1020 -- 49
2020-10-29 10:00:00 17.7 7 Noroeste 15 Noroeste 0 1019.8 -- 59
2020-10-29 09:00:00 14.2 7 Oeste 13 Noroeste 0 1019.3 -- 72
2020-10-29 08:00:00 10.3 7 Noroeste 11 Oeste 0 1018.3 -- 86
2020-10-29 07:00:00 10.2 9 Sudoeste 13 Oeste 0 1017.9 -- 87
2020-10-29 06:00:00 10.1 8 Oeste 11 Oeste 0 1017.5 -- 85
2020-10-29 05:00:00 11 6 Oeste 15 Noroeste 0 1017.2 -- 82
2020-10-29 04:00:00 11 10 Oeste 13 Oeste 0 1016.9 -- 82
2020-10-29 03:00:00 11.6 8 Oeste 15 Noroeste 0 1017.1 -- 80
2020-10-29 02:00:00 11.8 3 Oeste 18 Noroeste 0 1016.2 -- 84
2020-10-29 01:00:00 12.2 10 Noroeste 15 Noroeste 0 1016.3 -- 82
2020-10-29 00:00:00 12.4 6 Oeste 13 Oeste 0 1016.3 -- 83
2020-10-28 23:00:00 13.6 6 Oeste 9 Oeste 0 1016.4 -- 81
2020-10-28 22:00:00 15.2 6 Noroeste 11 Norte 0 1016.1 -- 75
2020-10-28 21:00:00 15.9 6 Noroeste 13 Norte 0 1015.7 -- 71
2020-10-28 20:00:00 18.4 9 Norte 13 Norte 0 1015.1 -- 64
2020-10-28 19:00:00 18.9 8 Este 21 Sudeste 0 1014 -- 63
2020-10-28 18:00:00 19.9 17 Sudeste 24 Sudeste 0 1013.1 -- 57
2020-10-28 17:00:00 22.1 17 Este 26 Sudeste 0 1012.7 -- 41
2020-10-28 16:00:00 23.7 19 Sudeste 22 Sudeste 0 1012.5 -- 38
2020-10-28 15:00:00 25.2 10 Sur 24 Sur 0 1012.2 -- 36
2020-10-28 14:00:00 24.2 12 Sur 21 Sur 0 1012.4 -- 37
2020-10-28 13:00:00 23.5 9 Oeste 18 Sudoeste 0 1013.1 -- 37
2020-10-28 12:00:00 22.5 5 Nordeste 15 Sur 0 1013.9 -- 37
2020-10-28 11:00:00 20.6 0 Calma 9 Noroeste 0 1014 -- 41
2020-10-28 10:00:00 17.7 7 Oeste 13 Oeste 0 1014 -- 49
2020-10-28 09:00:00 14.7 11 Oeste 15 Oeste 0 1013.6 -- 58
2020-10-28 08:00:00 12.4 12 Oeste 21 Oeste 0 1012.4 -- 63
2020-10-28 07:00:00 12.8 18 Oeste 22 Oeste 0 1011.7 -- 63
2020-10-28 06:00:00 11 9 Oeste 15 Oeste 0 1011.2 -- 66
2020-10-28 05:00:00 11.2 9 Oeste 13 Oeste 0 1010.8 -- 64
2020-10-28 04:00:00 13.2 8 Sudoeste 13 Oeste 0 1010.7 -- 56
2020-10-28 03:00:00 13.3 6 Oeste 13 Oeste 0 1010.5 -- 55
2020-10-28 02:00:00 12.2 9 Oeste 15 Oeste 0 1010.5 -- 57
2020-10-28 01:00:00 13.7 8 Oeste 15 Oeste 0 1010.7 -- 52
2020-10-28 00:00:00 14.3 11 Oeste 24 Oeste 0 1010.9 -- 49
2020-10-27 23:00:00 15 17 Oeste 21 Oeste 0 1010.8 -- 47
2020-10-27 22:00:00 16.6 13 Oeste 26 Oeste 0 1010.7 -- 43
2020-10-27 21:00:00 17.3 18 Oeste 30 Oeste 0 1010 -- 41
2020-10-27 20:00:00 18.1 22 Oeste 32 Oeste 0 1009.7 -- 39
2020-10-27 19:00:00 19.2 23 Sudoeste 32 Sudoeste 0 1009.1 -- 34
2020-10-27 18:00:00 20.5 19 Sudoeste 39 Oeste 0 1008.4 -- 33
2020-10-27 17:00:00 22.3 28 Sudoeste 39 Oeste 0 1008 -- 29
2020-10-27 16:00:00 22.5 25 Sudoeste 33 Oeste 0 1008.3 -- 29
2020-10-27 15:00:00 21.1 20 Sudoeste 41 Sudoeste 0 1008.8 -- 32
2020-10-27 14:00:00 21.7 18 Oeste 32 Oeste 0 1009.6 -- 29
2020-10-27 13:00:00 20.8 13 Oeste 35 Oeste -- 1010.4 -- 29
2020-10-27 12:00:00 19.8 19 Noroeste 32 Noroeste 0 1011.5 -- 29
2020-10-27 11:00:00 17.3 5 Oeste 17 Noroeste 0 1011.9 -- 36
2020-10-27 10:00:00 15.1 12 Noroeste 17 Noroeste 0 1012 -- 43
2020-10-27 09:00:00 11.6 7 Oeste 15 Oeste 0 1011.9 -- 53
2020-10-27 08:00:00 10.6 13 Noroeste 22 Noroeste 0 1011.2 -- 56
2020-10-27 07:00:00 9.1 11 Oeste 15 Oeste 0 1011.2 -- 61
2020-10-27 06:00:00 8.9 4 Este 22 Oeste 0 1010.9 -- 62
2020-10-27 05:00:00 9.7 17 Oeste 26 Oeste 0 1010.7 -- 59
2020-10-27 04:00:00 11.3 19 Oeste 28 Oeste 0 1010.7 -- 53
2020-10-27 03:00:00 11.6 17 Oeste 24 Sudoeste 0 1011.2 -- 52
2020-10-27 02:00:00 11 8 Oeste 17 Oeste 0 1011.7 -- 54
2020-10-27 01:00:00 12.7 13 Sudoeste 21 Sudoeste 0 1011.7 -- 48
2020-10-27 00:00:00 13.2 17 Sudoeste 28 Sudoeste 0 1011.9 -- 48